createdAt,value
2019-01-24T00:00:02.413Z,-2.7
2019-01-24T00:05:03.117Z,-2.7
2019-01-24T00:10:02.609Z,-2.7
2019-01-24T00:15:03.027Z,-2.7
2019-01-24T00:20:02.493Z,-2.9
2019-01-24T00:25:02.907Z,-2.9
2019-01-24T00:30:02.519Z,-2.9
2019-01-24T00:35:02.948Z,-2.9
2019-01-24T00:40:02.367Z,-3.2
2019-01-24T00:45:02.814Z,-3.0
2019-01-24T00:50:03.153Z,-3.0
2019-01-24T00:55:02.586Z,-3.0
2019-01-24T01:00:03.026Z,-3.0
2019-01-24T01:05:03.150Z,-3.2
2019-01-24T01:10:02.570Z,-3.0
2019-01-24T01:15:03.015Z,-3.0
2019-01-24T01:20:02.343Z,-3.2
2019-01-24T01:25:02.793Z,-3.2
2019-01-24T01:30:03.252Z,-3.2
2019-01-24T01:35:02.665Z,-3.0
2019-01-24T01:40:03.085Z,-3.0
2019-01-24T01:45:02.509Z,-3.0
2019-01-24T01:50:02.943Z,-3.0
2019-01-24T01:55:03.420Z,-2.9
2019-01-24T02:00:02.794Z,-3.0
2019-01-24T02:05:03.144Z,-3.0
2019-01-24T02:10:02.562Z,-3.2
2019-01-24T02:15:02.905Z,-3.2
2019-01-24T02:20:03.350Z,-3.2
2019-01-24T02:25:02.770Z,-3.5
2019-01-24T02:30:03.243Z,-3.2
2019-01-24T02:35:02.730Z,-3.2
2019-01-24T02:40:03.180Z,-3.2
2019-01-24T02:45:02.606Z,-3.5
2019-01-24T02:50:03.663Z,-3.2
2019-01-24T02:55:03.067Z,-3.7
2019-01-24T03:00:01.658Z,-3.5
2019-01-24T03:05:03.036Z,-3.2
2019-01-24T03:10:02.453Z,-3.5
2019-01-24T03:15:02.942Z,-3.7
2019-01-24T03:20:03.350Z,-3.7
2019-01-24T03:25:01.871Z,-3.7
2019-01-24T03:30:03.345Z,-3.7
2019-01-24T03:35:04.395Z,-3.5
2019-01-24T03:40:03.084Z,-3.5
2019-01-24T03:45:02.478Z,-3.5
2019-01-24T03:50:02.828Z,-3.5
2019-01-24T03:55:03.209Z,-3.7
2019-01-24T04:00:02.925Z,-3.5
2019-01-24T04:05:03.342Z,-3.5
2019-01-24T04:10:02.754Z,-3.7
2019-01-24T04:15:03.204Z,-3.5
2019-01-24T04:20:02.556Z,-3.5
2019-01-24T04:25:02.963Z,-3.2
2019-01-24T04:30:03.401Z,-3.7
2019-01-24T04:35:02.824Z,-3.7
2019-01-24T04:40:03.306Z,-3.7
2019-01-24T04:45:02.689Z,-3.9
2019-01-24T04:50:03.124Z,-3.7
2019-01-24T04:55:02.628Z,-3.9
2019-01-24T05:00:03.009Z,-3.7
2019-01-24T05:05:02.417Z,-3.5
2019-01-24T05:10:02.897Z,-3.2
2019-01-24T05:15:03.330Z,-3.7
2019-01-24T05:20:02.656Z,-3.7
2019-01-24T05:25:03.063Z,-3.7
2019-01-24T05:30:02.479Z,-3.7
2019-01-24T05:35:02.928Z,-3.7
2019-01-24T05:50:03.417Z,-4.0
2019-01-24T05:55:02.863Z,-4.3
2019-01-24T06:00:03.295Z,-4.0
2019-01-24T06:05:02.698Z,-4.0
2019-01-24T06:10:03.165Z,-4.0
2019-01-24T06:15:02.519Z,-4.0
2019-01-24T06:20:02.876Z,-3.9
2019-01-24T06:25:03.261Z,-3.9
2019-01-24T06:30:02.671Z,-3.9
2019-01-24T06:35:03.123Z,-3.9
2019-01-24T06:40:02.536Z,-3.9
2019-01-24T06:45:02.880Z,-3.9
2019-01-24T06:50:03.326Z,-3.9
2019-01-24T06:55:02.732Z,-4.0
2019-01-24T07:00:03.430Z,-3.9
2019-01-24T07:05:02.847Z,-4.0
2019-01-24T07:10:03.256Z,-4.3
2019-01-24T07:15:02.606Z,-4.3
2019-01-24T07:20:03.021Z,-4.0
2019-01-24T07:25:02.433Z,-4.0
2019-01-24T07:30:02.874Z,-4.0
2019-01-24T07:35:03.222Z,-4.0
2019-01-24T07:40:02.638Z,-4.3
2019-01-24T07:45:03.139Z,-4.5
2019-01-24T07:50:02.592Z,-4.3
2019-01-24T07:55:02.943Z,-4.0
2019-01-24T08:00:03.594Z,-4.0
2019-01-24T08:05:03.016Z,-4.0
2019-01-24T08:10:02.435Z,-4.0
2019-01-24T08:15:02.768Z,-4.0
2019-01-24T08:20:03.250Z,-4.0
2019-01-24T08:25:02.733Z,-4.3
2019-01-24T08:30:02.264Z,-4.3
2019-01-24T08:35:02.699Z,-4.3
2019-01-24T08:40:03.144Z,-3.9
2019-01-24T08:45:02.558Z,-3.9
2019-01-24T08:50:02.899Z,-3.7
2019-01-24T08:55:03.245Z,-3.7
2019-01-24T09:00:02.653Z,-3.2
2019-01-24T09:05:03.008Z,-3.5
2019-01-24T09:10:02.418Z,-3.0
2019-01-24T09:15:02.766Z,-3.0
2019-01-24T09:20:03.241Z,-3.2
2019-01-24T09:25:02.665Z,-3.7
2019-01-24T09:30:03.074Z,-3.5
2019-01-24T09:35:02.518Z,-3.0
2019-01-24T09:40:02.937Z,-3.2
2019-01-24T09:45:03.375Z,-3.5
2019-01-24T09:50:02.787Z,-3.7
2019-01-24T09:55:03.392Z,-3.5
2019-01-24T10:00:02.861Z,-3.2
2019-01-24T10:05:03.305Z,-3.2
2019-01-24T10:10:02.716Z,-3.2
2019-01-24T10:15:03.064Z,-3.5
2019-01-24T10:20:02.586Z,-3.5
2019-01-24T10:25:02.928Z,-3.5
2019-01-24T10:30:03.312Z,-3.2
2019-01-24T10:35:02.688Z,-3.5
2019-01-24T10:40:03.137Z,-3.0
2019-01-24T10:45:02.552Z,-3.7
2019-01-24T10:50:02.998Z,-3.9
2019-01-24T10:55:02.452Z,-3.7
2019-01-24T11:00:02.868Z,-3.5
2019-01-24T11:05:03.307Z,-3.5
2019-01-24T11:10:02.723Z,-3.0
2019-01-24T11:15:02.352Z,-2.7
2019-01-24T11:20:02.834Z,-3.5
2019-01-24T11:25:03.226Z,-3.0
2019-01-24T11:30:02.690Z,-3.2
2019-01-24T11:35:03.093Z,-3.2
2019-01-24T11:40:02.501Z,-2.9
2019-01-24T11:45:02.858Z,-2.9
2019-01-24T11:50:03.300Z,-2.7
2019-01-24T11:55:02.703Z,-2.9
2019-01-24T12:00:03.053Z,-3.0
2019-01-24T12:05:02.476Z,-3.5
2019-01-24T12:10:02.862Z,-3.0
2019-01-24T12:15:03.268Z,-2.9
2019-01-24T12:20:02.668Z,-2.2
2019-01-24T12:25:03.015Z,-2.5
2019-01-24T12:30:02.435Z,-2.9
2019-01-24T12:35:02.822Z,-3.2
2019-01-24T12:40:03.318Z,-3.0
2019-01-24T12:45:02.740Z,-2.9
2019-01-24T12:50:03.063Z,-3.0
2019-01-24T12:55:02.402Z,-2.7
2019-01-24T13:00:02.860Z,-2.9
2019-01-24T13:05:03.507Z,-3.2
2019-01-24T13:10:02.877Z,-2.9
2019-01-24T13:15:03.255Z,-2.9
2019-01-24T13:20:02.587Z,-3.0
2019-01-24T13:25:03.095Z,-3.0
2019-01-24T13:30:02.558Z,-2.7
2019-01-24T13:35:02.977Z,-2.7
2019-01-24T13:40:02.395Z,-2.2
2019-01-24T13:45:02.856Z,-2.9
2019-01-24T13:50:03.322Z,-2.5
2019-01-24T13:55:02.696Z,-2.5
2019-01-24T14:00:03.044Z,-2.7
2019-01-24T14:05:02.466Z,-2.5
2019-01-24T14:10:02.903Z,-3.2
2019-01-24T14:15:03.263Z,-2.5
2019-01-24T14:20:02.657Z,-2.7
2019-01-24T14:25:03.010Z,-3.0
2019-01-24T14:30:02.422Z,-3.7
2019-01-24T14:35:02.869Z,-3.2
2019-01-24T14:40:03.320Z,-3.2
2019-01-24T14:45:02.728Z,-3.0
2019-01-24T14:50:03.069Z,-3.0
2019-01-24T14:55:02.404Z,-3.2
2019-01-24T15:00:01.936Z,-3.0
2019-01-24T15:05:03.374Z,-3.0
2019-01-24T15:10:01.958Z,-2.9
2019-01-24T15:15:03.442Z,-3.0
2019-01-24T15:20:02.853Z,-3.2
2019-01-24T15:25:03.237Z,-3.5
2019-01-24T15:30:02.613Z,-3.2
2019-01-24T15:35:02.966Z,-3.2
2019-01-24T15:40:02.483Z,-3.2
2019-01-24T15:45:02.829Z,-3.2
2019-01-24T15:50:03.273Z,-3.2
2019-01-24T15:55:02.685Z,-3.5
2019-01-24T16:00:03.061Z,-3.5
2019-01-24T16:05:02.461Z,-3.5
2019-01-24T16:10:02.896Z,-3.7
2019-01-24T16:15:06.000Z,-3.5
2019-01-24T16:20:02.338Z,-3.5
2019-01-24T16:25:04.196Z,-3.5
2019-01-24T16:30:02.715Z,-3.5
2019-01-24T16:35:03.166Z,-3.5
2019-01-24T16:40:02.615Z,-3.5
2019-01-24T16:45:03.031Z,-3.5
2019-01-24T16:50:02.477Z,-3.5
2019-01-24T16:55:02.897Z,-3.7
2019-01-24T17:00:02.524Z,-3.5
2019-01-24T17:05:02.986Z,-3.7
2019-01-24T17:10:02.473Z,-3.7
2019-01-24T17:15:02.827Z,-3.7
2019-01-24T17:20:03.264Z,-3.5
2019-01-24T17:25:02.597Z,-3.5
2019-01-24T17:30:03.028Z,-3.7
2019-01-24T17:35:02.482Z,-3.7
2019-01-24T17:40:02.986Z,-3.7
2019-01-24T17:45:02.734Z,-3.9
2019-01-24T17:50:03.074Z,-3.7
2019-01-24T17:55:02.464Z,-3.5
2019-01-24T18:00:02.952Z,-3.7
2019-01-24T18:05:03.481Z,-3.5
2019-01-24T18:10:02.981Z,-3.7
2019-01-24T18:15:01.644Z,-3.5
2019-01-24T18:20:03.049Z,-3.7
2019-01-24T18:25:02.469Z,-3.7
2019-01-24T18:30:02.818Z,-3.9
2019-01-24T18:35:03.262Z,-3.9
2019-01-24T18:40:02.648Z,-3.9
2019-01-24T18:45:03.017Z,-4.0
2019-01-24T18:50:02.460Z,-3.9
2019-01-24T18:55:02.792Z,-3.7
2019-01-24T19:00:03.122Z,-3.9
2019-01-24T19:05:04.271Z,-3.9
2019-01-24T19:10:02.763Z,-3.9
2019-01-24T19:15:03.099Z,-3.7
2019-01-24T19:20:02.530Z,-3.9
2019-01-24T19:25:02.876Z,-3.9
2019-01-24T19:30:03.213Z,-3.7
2019-01-24T19:35:02.638Z,-3.5
2019-01-24T19:40:03.091Z,-3.9
2019-01-24T19:45:02.417Z,-3.9
2019-01-24T19:50:02.891Z,-4.0
2019-01-24T19:55:03.281Z,-4.0
2019-01-24T20:00:02.746Z,-3.9
2019-01-24T20:05:03.306Z,-4.0
2019-01-24T20:10:02.820Z,-4.0
2019-01-24T20:15:03.252Z,-3.7
2019-01-24T20:20:02.666Z,-3.9
2019-01-24T20:25:03.096Z,-3.9
2019-01-24T20:30:02.521Z,-3.9
2019-01-24T20:35:03.077Z,-3.9
2019-01-24T20:40:02.710Z,-3.9
2019-01-24T20:45:03.141Z,-3.9
2019-01-24T20:50:02.591Z,-3.7
2019-01-24T20:55:03.012Z,-3.7
2019-01-24T21:00:01.579Z,-3.7
2019-01-24T21:05:03.067Z,-3.9
2019-01-24T21:10:02.582Z,-3.7
2019-01-24T21:15:03.032Z,-3.7
2019-01-24T21:20:02.557Z,-3.7
2019-01-24T21:25:03.008Z,-3.7
2019-01-24T21:30:02.414Z,-3.7
2019-01-24T21:35:02.859Z,-3.7
2019-01-24T21:40:03.687Z,-3.7
2019-01-24T21:45:03.274Z,-3.9
2019-01-24T21:50:02.761Z,-3.9
2019-01-24T21:55:03.206Z,-3.7
2019-01-24T22:00:02.649Z,-3.9
2019-01-24T22:05:03.062Z,-3.7
2019-01-24T22:10:02.588Z,-3.7
2019-01-24T22:15:03.034Z,-3.7
2019-01-24T22:20:02.451Z,-3.5
2019-01-24T22:25:02.830Z,-3.7
2019-01-24T22:30:03.228Z,-3.7
2019-01-24T22:35:02.651Z,-3.9
2019-01-24T22:40:03.100Z,-3.9
2019-01-24T22:45:02.518Z,-3.9
2019-01-24T22:50:02.964Z,-3.7
2019-01-24T22:55:02.383Z,-3.7
2019-01-24T23:00:02.848Z,-3.7
2019-01-24T23:05:03.270Z,-3.9
2019-01-24T23:10:02.777Z,-3.9
2019-01-24T23:15:03.269Z,-3.9
2019-01-24T23:20:02.758Z,-3.7
2019-01-24T23:25:03.199Z,-3.7
2019-01-24T23:30:02.612Z,-4.0
2019-01-24T23:35:03.052Z,-4.0
2019-01-24T23:40:02.578Z,-4.0
2019-01-24T23:45:02.213Z,-4.3
2019-01-24T23:50:02.635Z,-4.0
2019-01-24T23:55:03.086Z,-4.3
